Hunts Corners, New York
Current Conditions -  °F | °C
As of 8:15 PM on Saturday 25 Oct 2014 (Local Time) from KN03 Reporting Station
Broken Clouds Broken Clouds  
Wind Chill: 57°   Ceiling: 7000
Heat Index: 57°   Visibility: 10mi
Dew Point: 46°   Wind: 3mph
Humidity: 67%   Direction: 290°WNW
Pressure: 29.62"   Gusts: NA
Location:  42.4596°N, 76.0658°W
Report Text: KN03 260015Z AUTO 29003KT 10SM SCT043 SCT055 BKN070 14/08 A2962 RMK AO2
Loading
Personal Weather Stations






























Interactive Weather Map
Tropical Storm Tracking
New forecast layout! Learn more

10-Day Weather Forecast

Advertisements
Track Severe Weather on mobile